Time;durP1;ratioP1;P1;durP2;ratioP2;P2;SDS_P1;SDS_P2;PMS_P1;PMS_P2;Temp;Humidity;BMP_temperature;BMP_pressure;BME280_temperature;BME280_humidity;BME280_pressure;Samples;Min_cycle;Max_cycle;Signal;HPM_P1;HPM_P2
2022/06/05 00:02:33;;;;;;;;;;;;;;;;;;5025626;28;20016;-76
2022/06/05 00:05:11;;;;;;;;;;;;;;;;;;5009509;28;20275;-76
2022/06/05 00:07:47;;;;;;;;;;;;;;;;;;5025937;28;19926;-76
2022/06/05 00:10:19;;;;;;;;;;;;;;;;;;5025493;28;19918;-76
2022/06/05 00:13:00;;;;;;;;;;;;;;;;;;5058599;28;19917;-76
2022/06/05 00:15:27;;;;;;;;;;;;;;;;;;5011313;28;19942;-76
2022/06/05 00:17:53;;;;;;;;;;;;;;;;;;5005442;28;19922;-76
2022/06/05 00:20:19;;;;;;;;;;;;;;;;;;5003641;28;19953;-76
2022/06/05 00:22:46;;;;;;;;;;;;;;;;;;4988695;28;20001;-76
2022/06/05 00:25:14;;;;;;;;;;;;;;;;;;5003935;28;19918;-76
2022/06/05 00:27:46;;;;;;;;;;;;;;;;;;5003846;28;19957;-77
2022/06/05 00:30:21;;;;;;;;;;;;;;;;;;5020649;28;19918;-76
2022/06/05 00:32:50;;;;;;;;;;;;;;;;;;5015132;28;20368;-76
2022/06/05 00:35:18;;;;;;;;;;;;;;;;;;5076212;28;19918;-76
2022/06/05 00:37:55;;;;;;;;;;;;;;;;;;5008984;28;19918;-76
2022/06/05 00:40:40;;;;;;;;;;;;;;;;;;4990553;28;19922;-76
2022/06/05 00:43:08;;;;;;;;;;;;;;;;;;5039739;28;19917;-76
2022/06/05 00:45:35;;;;;;;;;;;;;;;;;;5020230;28;19925;-76
2022/06/05 00:48:01;;;;;;;;;;;;;;;;;;5058972;28;19918;-76
2022/06/05 00:50:31;;;;;;;;;;;;;;;;;;5107565;27;19925;-76
2022/06/05 00:52:58;;;;;;;;;;;;;;;;;;5011191;28;20012;-77
2022/06/05 00:55:25;;;;;;;;;;;;;;;;;;5028127;28;19925;-77
2022/06/05 00:57:52;;;;;;;;;;;;;;;;;;5011842;28;19918;-76
2022/06/05 01:00:19;;;;;;;;;;;;;;;;;;5044798;28;19929;-76
2022/06/05 01:02:50;;;;;;;;;;;;;;;;;;5008381;28;20469;-76
2022/06/05 01:05:16;;;;;;;;;;;;;;;;;;5008907;28;20387;-76
2022/06/05 01:07:43;;;;;;;;;;;;;;;;;;5008641;28;19926;-76
2022/06/05 01:10:10;;;;;;;;;;;;;;;;;;5008725;28;19918;-76
2022/06/05 01:12:41;;;;;;;;;;;;;;;;;;5007893;28;20367;-76
2022/06/05 01:15:06;;;;;;;;;;;;;;;;;;5025261;28;19967;-76
2022/06/05 01:17:38;;;;;;;;;;;;;;;;;;5025188;28;19918;-76
2022/06/05 01:20:10;;;;;;;;;;;;;;;;;;4992464;28;19929;-76
2022/06/05 01:22:54;;;;;;;;;;;;;;;;;;5008673;28;19922;-76
2022/06/05 01:25:30;;;;;;;;;;;;;;;;;;5041483;28;20017;-76
2022/06/05 01:27:58;;;;;;;;;;;;;;;;;;5024817;28;19922;-76
2022/06/05 01:30:24;;;;;;;;;;;;;;;;;;4997245;28;20028;-76
2022/06/05 01:33:06;;;;;;;;;;;;;;;;;;5011929;28;20362;-76
2022/06/05 01:35:52;;;;;;;;;;;;;;;;;;5028110;28;19978;-76
2022/06/05 01:38:21;;;;;;;;;;;;;;;;;;5031790;28;20311;-76
2022/06/05 01:40:49;;;;;;;;;;;;;;;;;;5027798;28;20012;-76
2022/06/05 01:43:17;;;;;;;;;;;;;;;;;;5011223;28;19925;-76
2022/06/05 01:45:46;;;;;;;;;;;;;;;;;;5025907;28;19917;-76
2022/06/05 01:48:18;;;;;;;;;;;;;;;;;;5011555;28;20432;-76
2022/06/05 01:50:46;;;;;;;;;;;;;;;;;;4994896;28;19918;-76
2022/06/05 01:53:27;;;;;;;;;;;;;;;;;;4991687;28;19918;-76
2022/06/05 01:56:02;;;;;;;;;;;;;;;;;;5008231;28;19967;-76
2022/06/05 01:58:36;;;;;;;;;;;;;;;;;;5007970;28;20009;-76
2022/06/05 02:01:07;;;;;;;;;;;;;;;;;;5008160;28;20359;-76
2022/06/05 02:03:37;;;;;;;;;;;;;;;;;;5024146;28;19918;-76
2022/06/05 02:06:05;;;;;;;;;;;;;;;;;;5024327;28;19977;-76
2022/06/05 02:08:35;;;;;;;;;;;;;;;;;;5024420;28;19922;-76
2022/06/05 02:11:13;;;;;;;;;;;;;;;;;;5024399;28;19945;-76
2022/06/05 02:13:47;;;;;;;;;;;;;;;;;;5023665;28;22736;-76
2022/06/05 02:16:12;;;;;;;;;;;;;;;;;;5041839;27;19924;-76
2022/06/05 02:18:38;;;;;;;;;;;;;;;;;;5012108;28;19914;-76
2022/06/05 02:21:07;;;;;;;;;;;;;;;;;;5027229;28;19925;-76
2022/06/05 02:23:34;;;;;;;;;;;;;;;;;;5027534;28;20000;-76
2022/06/05 02:26:04;;;;;;;;;;;;;;;;;;5027200;28;19922;-76
2022/06/05 02:28:32;;;;;;;;;;;;;;;;;;5027274;28;19925;-76
2022/06/05 02:30:58;;;;;;;;;;;;;;;;;;5010852;28;19968;-76
2022/06/05 02:33:32;;;;;;;;;;;;;;;;;;5060400;28;19925;-76
2022/06/05 02:36:16;;;;;;;;;;;;;;;;;;5027403;27;20016;-76
2022/06/05 02:39:00;;;;;;;;;;;;;;;;;;5043599;28;20397;-76
2022/06/05 02:41:29;;;;;;;;;;;;;;;;;;5043574;28;19917;-76
2022/06/05 02:47:10;;;;;;;;;;;;;;;;;;5043501;28;20473;-76
2022/06/05 02:49:42;;;;;;;;;;;;;;;;;;5009853;28;19921;-76
2022/06/05 02:52:09;;;;;;;;;;;;;;;;;;5059635;28;20489;-76
2022/06/05 02:54:40;;;;;;;;;;;;;;;;;;5011588;28;19917;-76
2022/06/05 02:57:05;;;;;;;;;;;;;;;;;;4993492;28;20025;-76
2022/06/05 02:59:31;;;;;;;;;;;;;;;;;;5011248;28;20351;-76
2022/06/05 03:04:42;;;;;;;;;;;;;;;;;;5011393;28;19956;-76
2022/06/05 03:07:08;;;;;;;;;;;;;;;;;;5010246;28;19933;-76
2022/06/05 03:09:33;;;;;;;;;;;;;;;;;;5026509;28;20383;-76
2022/06/05 03:11:59;;;;;;;;;;;;;;;;;;5010102;28;19917;-76
2022/06/05 03:14:24;;;;;;;;;;;;;;;;;;5043254;28;19918;-76
2022/06/05 03:16:50;;;;;;;;;;;;;;;;;;5043087;28;19918;-76
2022/06/05 03:19:15;;;;;;;;;;;;;;;;;;5063425;27;19941;-76
2022/06/05 03:21:41;;;;;;;;;;;;;;;;;;5013439;28;19917;-76
2022/06/05 03:24:07;;;;;;;;;;;;;;;;;;5062992;28;19966;-76
2022/06/05 03:26:33;;;;;;;;;;;;;;;;;;5030862;28;19963;-76
2022/06/05 03:28:58;;;;;;;;;;;;;;;;;;5046164;28;20397;-76
2022/06/05 03:31:24;;;;;;;;;;;;;;;;;;5029650;28;19917;-76
2022/06/05 03:33:49;;;;;;;;;;;;;;;;;;5030951;28;20012;-76
2022/06/05 03:36:16;;;;;;;;;;;;;;;;;;5029532;28;19978;-76
2022/06/05 03:38:41;;;;;;;;;;;;;;;;;;5012757;28;19931;-76
2022/06/05 03:41:08;;;;;;;;;;;;;;;;;;5009516;28;19918;-76
2022/06/05 03:43:34;;;;;;;;;;;;;;;;;;5025961;28;19941;-76
2022/06/05 03:46:10;;;;;;;;;;;;;;;;;;5025838;28;20359;-76
2022/06/05 03:48:36;;;;;;;;;;;;;;;;;;5025974;28;19918;-76
2022/06/05 03:51:12;;;;;;;;;;;;;;;;;;5010636;28;19940;-76
2022/06/05 03:53:38;;;;;;;;;;;;;;;;;;5025391;28;19917;-76
2022/06/05 03:56:11;;;;;;;;;;;;;;;;;;5026125;28;20012;-76
2022/06/05 03:58:38;;;;;;;;;;;;;;;;;;5009840;28;19928;-76
2022/06/05 04:01:06;;;;;;;;;;;;;;;;;;5010438;28;20012;-76
2022/06/05 04:03:34;;;;;;;;;;;;;;;;;;5030258;28;19962;-76
2022/06/05 04:06:01;;;;;;;;;;;;;;;;;;5004003;28;19977;-76
2022/06/05 04:08:27;;;;;;;;;;;;;;;;;;5007454;28;19928;-76
2022/06/05 04:10:54;;;;;;;;;;;;;;;;;;5044605;27;19921;-76
2022/06/05 04:13:20;;;;;;;;;;;;;;;;;;5027361;28;19918;-76
2022/06/05 04:15:46;;;;;;;;;;;;;;;;;;5027418;28;20598;-76
2022/06/05 04:18:13;;;;;;;;;;;;;;;;;;5012231;28;19921;-76
2022/06/05 04:20:39;;;;;;;;;;;;;;;;;;5010841;28;19925;-76
2022/06/05 04:23:04;;;;;;;;;;;;;;;;;;5010621;28;20275;-76
2022/06/05 04:25:29;;;;;;;;;;;;;;;;;;5011777;28;19966;-76
2022/06/05 04:27:56;;;;;;;;;;;;;;;;;;5026873;28;19921;-76
2022/06/05 04:30:21;;;;;;;;;;;;;;;;;;5026286;28;19925;-76
2022/06/05 04:32:47;;;;;;;;;;;;;;;;;;5027071;28;19921;-76
2022/06/05 04:35:12;;;;;;;;;;;;;;;;;;5010556;28;20363;-76
2022/06/05 04:37:38;;;;;;;;;;;;;;;;;;5014107;28;19922;-75
2022/06/05 04:40:04;;;;;;;;;;;;;;;;;;5014019;28;20356;-76
2022/06/05 04:42:30;;;;;;;;;;;;;;;;;;5012238;28;19921;-76
2022/06/05 04:44:56;;;;;;;;;;;;;;;;;;5013803;28;19917;-76
2022/06/05 04:47:21;;;;;;;;;;;;;;;;;;5062226;28;19944;-76
2022/06/05 04:49:46;;;;;;;;;;;;;;;;;;5029146;28;19949;-76
2022/06/05 04:52:12;;;;;;;;;;;;;;;;;;5013789;28;20278;-76
2022/06/05 04:54:37;;;;;;;;;;;;;;;;;;5013711;28;19917;-76
2022/06/05 04:57:02;;;;;;;;;;;;;;;;;;5045642;28;19913;-76
2022/06/05 04:59:28;;;;;;;;;;;;;;;;;;5012324;28;20454;-76
2022/06/05 05:01:53;;;;;;;;;;;;;;;;;;4997306;28;19918;-76
2022/06/05 05:04:18;;;;;;;;;;;;;;;;;;4993819;28;19918;-76
2022/06/05 05:06:44;;;;;;;;;;;;;;;;;;4993166;28;19922;-76
2022/06/05 05:09:12;;;;;;;;;;;;;;;;;;5009000;28;19918;-76
2022/06/05 05:11:38;;;;;;;;;;;;;;;;;;4992772;28;19924;-76
2022/06/05 05:14:05;;;;;;;;;;;;;;;;;;5025213;28;20351;-76
2022/06/05 05:16:32;;;;;;;;;;;;;;;;;;5025420;28;20351;-76
2022/06/05 05:18:59;;;;;;;;;;;;;;;;;;5025135;28;19936;-75
2022/06/05 05:21:27;;;;;;;;;;;;;;;;;;5011513;28;20004;-75
2022/06/05 05:23:54;;;;;;;;;;;;;;;;;;5044748;28;19964;-76
2022/06/05 05:26:22;;;;;;;;;;;;;;;;;;5013057;28;19921;-75
2022/06/05 05:28:48;;;;;;;;;;;;;;;;;;5011885;28;19921;-76
2022/06/05 05:31:15;;;;;;;;;;;;;;;;;;5011731;28;19952;-76
2022/06/05 05:33:41;;;;;;;;;;;;;;;;;;5044768;28;20016;-75
2022/06/05 05:36:07;;;;;;;;;;;;;;;;;;5031526;28;19928;-76
2022/06/05 05:38:34;;;;;;;;;;;;;;;;;;5032807;28;19969;-76
2022/06/05 05:43:44;;;;;;;;;;;;;;;;;;5031041;28;19917;-76
2022/06/05 05:46:11;;;;;;;;;;;;;;;;;;5032773;28;19928;-76
2022/06/05 05:48:39;;;;;;;;;;;;;;;;;;5011447;28;19918;-75
2022/06/05 05:51:12;;;;;;;;;;;;;;;;;;5010356;28;19917;-75
2022/06/05 05:53:38;;;;;;;;;;;;;;;;;;5010050;28;19921;-76
2022/06/05 05:56:11;;;;;;;;;;;;;;;;;;5027121;28;19918;-74
2022/06/05 05:58:37;;;;;;;;;;;;;;;;;;5011674;28;20012;-75
2022/06/05 06:01:04;;;;;;;;;;;;;;;;;;5043635;27;20001;-74
2022/06/05 06:03:30;;;;;;;;;;;;;;;;;;5012279;28;20028;-75
2022/06/05 06:06:00;;;;;;;;;;;;;;;;;;5000528;28;20387;-75
2022/06/05 06:08:26;;;;;;;;;;;;;;;;;;4991436;28;19917;-75
2022/06/05 06:10:51;;;;;;;;;;;;;;;;;;4992670;28;20005;-75
2022/06/05 06:13:17;;;;;;;;;;;;;;;;;;4991202;28;19972;-75
2022/06/05 06:15:43;;;;;;;;;;;;;;;;;;5047885;27;19997;-75
2022/06/05 06:18:08;;;;;;;;;;;;;;;;;;5031929;28;19917;-75
2022/06/05 06:20:34;;;;;;;;;;;;;;;;;;5031749;28;20297;-74
2022/06/05 06:22:59;;;;;;;;;;;;;;;;;;5030684;28;20366;-75
2022/06/05 06:25:26;;;;;;;;;;;;;;;;;;5013903;28;19917;-75
2022/06/05 06:27:53;;;;;;;;;;;;;;;;;;5013806;28;19928;-75
2022/06/05 06:30:20;;;;;;;;;;;;;;;;;;5039605;28;19922;-75
2022/06/05 06:32:45;;;;;;;;;;;;;;;;;;4990448;28;19990;-75
2022/06/05 06:35:11;;;;;;;;;;;;;;;;;;4992491;28;19925;-75
2022/06/05 06:37:37;;;;;;;;;;;;;;;;;;5007302;28;19918;-77
2022/06/05 06:40:03;;;;;;;;;;;;;;;;;;5007411;28;20137;-75
2022/06/05 06:42:29;;;;;;;;;;;;;;;;;;5023962;28;20379;-75
2022/06/05 06:44:56;;;;;;;;;;;;;;;;;;5007482;28;19980;-75
2022/06/05 06:47:21;;;;;;;;;;;;;;;;;;4991992;28;20391;-75
2022/06/05 06:49:47;;;;;;;;;;;;;;;;;;4992301;28;19925;-75
2022/06/05 06:52:12;;;;;;;;;;;;;;;;;;4990565;28;19917;-75
2022/06/05 06:54:37;;;;;;;;;;;;;;;;;;4992086;28;19922;-75
2022/06/05 06:57:03;;;;;;;;;;;;;;;;;;5007093;28;19921;-75
2022/06/05 06:59:29;;;;;;;;;;;;;;;;;;4991909;28;20379;-75
2022/06/05 07:01:54;;;;;;;;;;;;;;;;;;5013957;28;19918;-75
2022/06/05 07:04:21;;;;;;;;;;;;;;;;;;5023569;28;19917;-76
2022/06/05 07:06:47;;;;;;;;;;;;;;;;;;5007948;28;19922;-77
2022/06/05 07:09:14;;;;;;;;;;;;;;;;;;5007927;28;20397;-78
2022/06/05 07:11:40;;;;;;;;;;;;;;;;;;5011216;28;20386;-78
2022/06/05 07:14:05;;;;;;;;;;;;;;;;;;5011768;28;19917;-79
2022/06/05 07:16:31;;;;;;;;;;;;;;;;;;4994262;28;19967;-77
2022/06/05 07:18:56;;;;;;;;;;;;;;;;;;5008801;28;19967;-78
2022/06/05 07:21:24;;;;;;;;;;;;;;;;;;5009871;28;19971;-78
2022/06/05 07:23:49;;;;;;;;;;;;;;;;;;5009475;28;19922;-78
2022/06/05 07:26:17;;;;;;;;;;;;;;;;;;5010809;28;19929;-79
2022/06/05 07:28:42;;;;;;;;;;;;;;;;;;5027676;28;20272;-81
2022/06/05 07:31:09;;;;;;;;;;;;;;;;;;5013135;28;19953;-80
2022/06/05 07:33:35;;;;;;;;;;;;;;;;;;5032513;28;19954;-79
2022/06/05 07:36:03;;;;;;;;;;;;;;;;;;5032145;28;19918;-79
2022/06/05 07:38:29;;;;;;;;;;;;;;;;;;5014063;28;19917;-80
2022/06/05 07:40:55;;;;;;;;;;;;;;;;;;5030402;28;20332;-78
2022/06/05 07:43:21;;;;;;;;;;;;;;;;;;5011022;28;19921;-78
2022/06/05 07:45:47;;;;;;;;;;;;;;;;;;5017744;28;19917;-78
2022/06/05 07:48:16;;;;;;;;;;;;;;;;;;5047656;28;19921;-78
2022/06/05 07:56:10;;;;;;;;;;;;;;;;;;5032755;28;19917;-79
2022/06/05 07:58:35;;;;;;;;;;;;;;;;;;5031047;28;19928;-78
2022/06/05 08:01:00;;;;;;;;;;;;;;;;;;5032667;28;19917;-79
2022/06/05 08:03:26;;;;;;;;;;;;;;;;;;5032065;28;19924;-78
2022/06/05 08:05:51;;;;;;;;;;;;;;;;;;5029004;28;20070;-78
2022/06/05 08:08:19;;;;;;;;;;;;;;;;;;5029068;28;19917;-78
2022/06/05 08:10:45;;;;;;;;;;;;;;;;;;5029094;28;19940;-78
2022/06/05 08:13:11;;;;;;;;;;;;;;;;;;5028724;28;19917;-78
2022/06/05 08:15:36;;;;;;;;;;;;;;;;;;5028452;28;20336;-78
2022/06/05 08:18:01;;;;;;;;;;;;;;;;;;5061748;28;19959;-78
2022/06/05 08:20:28;;;;;;;;;;;;;;;;;;5012620;28;19933;-78
2022/06/05 08:22:57;;;;;;;;;;;;;;;;;;5028384;28;19924;-78
2022/06/05 08:25:22;;;;;;;;;;;;;;;;;;5012168;28;19940;-78
2022/06/05 08:27:48;;;;;;;;;;;;;;;;;;5028690;28;19922;-78
2022/06/05 08:30:13;;;;;;;;;;;;;;;;;;5011882;28;19940;-78
2022/06/05 08:32:39;;;;;;;;;;;;;;;;;;5010846;28;19925;-78
2022/06/05 08:35:04;;;;;;;;;;;;;;;;;;5013663;28;19933;-79
2022/06/05 08:43:03;;;;;;;;;;;;;;;;;;5045416;28;19924;-79
2022/06/05 08:45:39;;;;;;;;;;;;;;;;;;5045386;28;19925;-78
2022/06/05 08:48:11;;;;;;;;;;;;;;;;;;5028782;28;19928;-78
2022/06/05 08:50:44;;;;;;;;;;;;;;;;;;5011920;28;20397;-78
2022/06/05 08:53:36;;;;;;;;;;;;;;;;;;5028943;28;19917;-78
2022/06/05 08:56:03;;;;;;;;;;;;;;;;;;5030990;28;20529;-78
2022/06/05 08:58:32;;;;;;;;;;;;;;;;;;5016827;28;19922;-78
2022/06/05 09:01:00;;;;;;;;;;;;;;;;;;5048553;27;19963;-78
2022/06/05 09:03:43;;;;;;;;;;;;;;;;;;5040835;28;19976;-78
2022/06/05 09:06:14;;;;;;;;;;;;;;;;;;5026686;28;19928;-79
2022/06/05 09:08:41;;;;;;;;;;;;;;;;;;5043850;28;19918;-78
2022/06/05 09:11:18;;;;;;;;;;;;;;;;;;5044065;28;19939;-79
2022/06/05 09:14:02;;;;;;;;;;;;;;;;;;5043580;28;19925;-79
2022/06/05 09:16:31;;;;;;;;;;;;;;;;;;5059628;28;19953;-79
2022/06/05 09:18:58;;;;;;;;;;;;;;;;;;5043136;28;20012;-79
2022/06/05 09:21:46;;;;;;;;;;;;;;;;;;5042491;28;19963;-78
2022/06/05 09:24:14;;;;;;;;;;;;;;;;;;5035981;28;19925;-77
2022/06/05 09:26:42;;;;;;;;;;;;;;;;;;5016965;28;19921;-78
2022/06/05 09:29:26;;;;;;;;;;;;;;;;;;5017440;28;19925;-77
2022/06/05 09:32:06;;;;;;;;;;;;;;;;;;5016267;28;19925;-76
2022/06/05 09:34:36;;;;;;;;;;;;;;;;;;5048113;28;20291;-81
2022/06/05 09:37:22;;;;;;;;;;;;;;;;;;5011819;28;19924;-76
2022/06/05 09:39:51;;;;;;;;;;;;;;;;;;5011192;28;20283;-75
2022/06/05 09:42:36;;;;;;;;;;;;;;;;;;5027362;28;19972;-76
2022/06/05 09:45:17;;;;;;;;;;;;;;;;;;5011073;28;20012;-76
2022/06/05 09:47:43;;;;;;;;;;;;;;;;;;5012230;28;20406;-76
2022/06/05 09:50:18;;;;;;;;;;;;;;;;;;5044363;28;19987;-75
2022/06/05 09:52:44;;;;;;;;;;;;;;;;;;5027548;28;19917;-76
2022/06/05 09:55:09;;;;;;;;;;;;;;;;;;5027847;28;20387;-75
2022/06/05 10:00:29;;;;;;;;;;;;;;;;;;5043948;28;19921;-76
2022/06/05 10:03:01;;;;;;;;;;;;;;;;;;5027476;28;20416;-76
2022/06/05 10:05:28;;;;;;;;;;;;;;;;;;5011308;28;19940;-76
2022/06/05 10:07:56;;;;;;;;;;;;;;;;;;5011601;28;19966;-81
2022/06/05 10:10:25;;;;;;;;;;;;;;;;;;5032769;28;20325;-78
2022/06/05 10:12:55;;;;;;;;;;;;;;;;;;5031956;28;19962;-78
2022/06/05 10:15:27;;;;;;;;;;;;;;;;;;5029554;28;19917;-76
2022/06/05 10:17:58;;;;;;;;;;;;;;;;;;5029641;28;19918;-79
2022/06/05 10:20:34;;;;;;;;;;;;;;;;;;5014013;28;19922;-78
2022/06/05 10:23:10;;;;;;;;;;;;;;;;;;5013785;28;19925;-78
2022/06/05 10:25:35;;;;;;;;;;;;;;;;;;5014068;28;20363;-78
2022/06/05 10:28:12;;;;;;;;;;;;;;;;;;5060419;28;19922;-76
2022/06/05 10:30:41;;;;;;;;;;;;;;;;;;5030596;28;19921;-79
2022/06/05 10:33:13;;;;;;;;;;;;;;;;;;5015536;28;19918;-78
2022/06/05 10:35:39;;;;;;;;;;;;;;;;;;5034606;27;19918;-79
2022/06/05 10:38:16;;;;;;;;;;;;;;;;;;5047640;28;19924;-78
2022/06/05 10:40:50;;;;;;;;;;;;;;;;;;5015059;28;20025;-78
2022/06/05 10:43:25;;;;;;;;;;;;;;;;;;5063052;28;19921;-78
2022/06/05 10:45:50;;;;;;;;;;;;;;;;;;5030512;28;19928;-78
2022/06/05 10:48:25;;;;;;;;;;;;;;;;;;5063408;28;19917;-78
2022/06/05 10:50:54;;;;;;;;;;;;;;;;;;5029599;28;19956;-78
2022/06/05 10:53:29;;;;;;;;;;;;;;;;;;5012150;28;19953;-76
2022/06/05 10:56:04;;;;;;;;;;;;;;;;;;5062659;28;19926;-76
2022/06/05 10:58:46;;;;;;;;;;;;;;;;;;5046281;28;19921;-77
2022/06/05 11:01:12;;;;;;;;;;;;;;;;;;5013382;28;20374;-76
2022/06/05 11:03:37;;;;;;;;;;;;;;;;;;5063038;28;19917;-76
2022/06/05 11:06:06;;;;;;;;;;;;;;;;;;5007436;28;19963;-76
2022/06/05 11:08:50;;;;;;;;;;;;;;;;;;5012094;28;19962;-78
2022/06/05 11:14:13;;;;;;;;;;;;;;;;;;5046689;28;19917;-79
2022/06/05 11:17:08;;;;;;;;;;;;;;;;;;5013712;28;19921;-79
2022/06/05 11:19:42;;;;;;;;;;;;;;;;;;5012536;28;20008;-82
2022/06/05 11:22:16;;;;;;;;;;;;;;;;;;5029855;28;20656;-82
2022/06/05 11:24:47;;;;;;;;;;;;;;;;;;5014515;28;19917;-83
2022/06/05 11:27:25;;;;;;;;;;;;;;;;;;5017217;28;19922;-83
2022/06/05 11:29:59;;;;;;;;;;;;;;;;;;5022127;28;19917;-84
2022/06/05 11:32:29;;;;;;;;;;;;;;;;;;5017405;28;19922;-84
2022/06/05 11:34:57;;;;;;;;;;;;;;;;;;5016576;28;20383;-83
2022/06/05 11:37:22;;;;;;;;;;;;;;;;;;5034273;28;19928;-81
2022/06/05 11:39:51;;;;;;;;;;;;;;;;;;5057261;28;19922;-82
2022/06/05 11:42:21;;;;;;;;;;;;;;;;;;5070942;27;19928;-83
2022/06/05 11:44:46;;;;;;;;;;;;;;;;;;5021290;28;19966;-83
2022/06/05 11:47:32;;;;;;;;;;;;;;;;;;5054319;28;19928;-82
2022/06/05 11:50:05;;;;;;;;;;;;;;;;;;5022259;28;19917;-83
2022/06/05 11:52:36;;;;;;;;;;;;;;;;;;5037937;28;19917;-83
2022/06/05 11:55:23;;;;;;;;;;;;;;;;;;5037520;28;19941;-83
2022/06/05 11:58:02;;;;;;;;;;;;;;;;;;5003057;28;19917;-83
2022/06/05 12:00:35;;;;;;;;;;;;;;;;;;5033193;28;19970;-83
2022/06/05 12:03:10;;;;;;;;;;;;;;;;;;5068719;28;20011;-82
2022/06/05 12:05:47;;;;;;;;;;;;;;;;;;5052294;28;19917;-83
2022/06/05 12:08:14;;;;;;;;;;;;;;;;;;5002884;28;19959;-85
2022/06/05 12:10:52;;;;;;;;;;;;;;;;;;5033192;28;19917;-82
2022/06/05 12:13:26;;;;;;;;;;;;;;;;;;5030554;28;19933;-81
2022/06/05 12:15:55;;;;;;;;;;;;;;;;;;5041000;27;19918;-80
2022/06/05 12:18:25;;;;;;;;;;;;;;;;;;5026046;28;19944;-78
2022/06/05 12:20:53;;;;;;;;;;;;;;;;;;4992023;28;19918;-78
2022/06/05 12:23:33;;;;;;;;;;;;;;;;;;4992530;28;19924;-77
2022/06/05 12:26:17;;;;;;;;;;;;;;;;;;5007801;28;19930;-77
2022/06/05 12:28:43;;;;;;;;;;;;;;;;;;4992972;28;19928;-77
2022/06/05 12:31:17;;;;;;;;;;;;;;;;;;4994917;28;19918;-77
2022/06/05 12:34:15;;;;;;;;;;;;;;;;;;4996085;28;20408;-77
2022/06/05 12:36:44;;;;;;;;;;;;;;;;;;5001200;28;19918;-77
2022/06/05 12:39:22;;;;;;;;;;;;;;;;;;5011978;28;19964;-77
2022/06/05 12:41:54;;;;;;;;;;;;;;;;;;4995532;28;19921;-77
2022/06/05 12:44:20;;;;;;;;;;;;;;;;;;4994687;28;19925;-76
2022/06/05 12:46:54;;;;;;;;;;;;;;;;;;4995084;28;19943;-76
2022/06/05 12:49:28;;;;;;;;;;;;;;;;;;4995414;28;19967;-76
2022/06/05 12:52:17;;;;;;;;;;;;;;;;;;5012086;28;20291;-76
2022/06/05 12:54:47;;;;;;;;;;;;;;;;;;5023488;28;19917;-76
2022/06/05 12:57:17;;;;;;;;;;;;;;;;;;5012031;28;19917;-76
2022/06/05 12:59:49;;;;;;;;;;;;;;;;;;5012291;28;19925;-76
2022/06/05 13:02:20;;;;;;;;;;;;;;;;;;5012356;28;20294;-76
2022/06/05 13:05:06;;;;;;;;;;;;;;;;;;5011735;28;19994;-76
2022/06/05 13:07:34;;;;;;;;;;;;;;;;;;5027944;28;19929;-76
2022/06/05 13:10:01;;;;;;;;;;;;;;;;;;5045058;28;19917;-76
2022/06/05 13:12:48;;;;;;;;;;;;;;;;;;5011267;28;19917;-76
2022/06/05 13:15:33;;;;;;;;;;;;;;;;;;5011637;28;19943;-76
2022/06/05 13:18:03;;;;;;;;;;;;;;;;;;5010893;28;20021;-77
2022/06/05 13:20:34;;;;;;;;;;;;;;;;;;5027471;28;19964;-76
2022/06/05 13:23:19;;;;;;;;;;;;;;;;;;5044789;28;20268;-77
2022/06/05 13:26:11;;;;;;;;;;;;;;;;;;5057850;28;19917;-76
2022/06/05 13:28:40;;;;;;;;;;;;;;;;;;5027995;28;19928;-76
2022/06/05 13:31:27;;;;;;;;;;;;;;;;;;5044846;28;19931;-76
2022/06/05 13:33:56;;;;;;;;;;;;;;;;;;5011112;28;19921;-76
2022/06/05 13:36:48;;;;;;;;;;;;;;;;;;5045302;28;19917;-75
2022/06/05 13:39:14;;;;;;;;;;;;;;;;;;5030777;28;19917;-75
2022/06/05 13:41:42;;;;;;;;;;;;;;;;;;4995257;28;19917;-77
2022/06/05 13:44:15;;;;;;;;;;;;;;;;;;5013298;28;19928;-78
2022/06/05 13:46:50;;;;;;;;;;;;;;;;;;5012068;28;20422;-76
2022/06/05 13:49:20;;;;;;;;;;;;;;;;;;5011358;28;19925;-76
2022/06/05 13:52:01;;;;;;;;;;;;;;;;;;5010910;28;19917;-76
2022/06/05 13:54:31;;;;;;;;;;;;;;;;;;5012069;28;19917;-75
2022/06/05 13:57:00;;;;;;;;;;;;;;;;;;5011190;28;20354;-76
2022/06/05 13:59:44;;;;;;;;;;;;;;;;;;5011162;28;19926;-75
2022/06/05 14:02:10;;;;;;;;;;;;;;;;;;5012187;28;20398;-78
2022/06/05 14:04:52;;;;;;;;;;;;;;;;;;5045631;28;19924;-76
2022/06/05 14:07:19;;;;;;;;;;;;;;;;;;5011038;28;20367;-76
2022/06/05 14:09:54;;;;;;;;;;;;;;;;;;5011169;28;19924;-76
2022/06/05 14:12:22;;;;;;;;;;;;;;;;;;5010863;28;20012;-76
2022/06/05 14:14:48;;;;;;;;;;;;;;;;;;5011964;28;19921;-76
2022/06/05 14:17:20;;;;;;;;;;;;;;;;;;5010926;28;19956;-76
2022/06/05 14:19:51;;;;;;;;;;;;;;;;;;5012202;28;20275;-76
2022/06/05 14:22:22;;;;;;;;;;;;;;;;;;5010670;28;19926;-76
2022/06/05 14:24:49;;;;;;;;;;;;;;;;;;5010899;28;19917;-76
2022/06/05 14:27:16;;;;;;;;;;;;;;;;;;5010729;28;20012;-76
2022/06/05 14:29:48;;;;;;;;;;;;;;;;;;5010702;28;19917;-76
2022/06/05 14:32:26;;;;;;;;;;;;;;;;;;5011934;28;19921;-76
2022/06/05 14:35:10;;;;;;;;;;;;;;;;;;5010587;28;19918;-76
2022/06/05 14:37:37;;;;;;;;;;;;;;;;;;5026854;27;19918;-76
2022/06/05 14:40:05;;;;;;;;;;;;;;;;;;5043367;28;19917;-76
2022/06/05 14:42:43;;;;;;;;;;;;;;;;;;5026338;27;20298;-76
2022/06/05 14:45:15;;;;;;;;;;;;;;;;;;5011536;28;20021;-76
2022/06/05 14:47:46;;;;;;;;;;;;;;;;;;5010095;28;19928;-76
2022/06/05 14:50:35;;;;;;;;;;;;;;;;;;5059486;28;19923;-76
2022/06/05 14:53:09;;;;;;;;;;;;;;;;;;5017877;28;19918;-76
2022/06/05 14:58:37;;;;;;;;;;;;;;;;;;5042904;28;19940;-77
2022/06/05 15:01:12;;;;;;;;;;;;;;;;;;5026079;28;19917;-76
2022/06/05 15:03:44;;;;;;;;;;;;;;;;;;5011493;28;19931;-76
2022/06/05 15:06:10;;;;;;;;;;;;;;;;;;5059854;28;19917;-76
2022/06/05 15:08:46;;;;;;;;;;;;;;;;;;5011334;28;19963;-76
2022/06/05 15:11:20;;;;;;;;;;;;;;;;;;5026460;28;20448;-76
2022/06/05 15:13:49;;;;;;;;;;;;;;;;;;5009848;28;19925;-76
2022/06/05 15:16:24;;;;;;;;;;;;;;;;;;5043215;28;20355;-76
2022/06/05 15:18:50;;;;;;;;;;;;;;;;;;5010034;28;19925;-76
2022/06/05 15:21:22;;;;;;;;;;;;;;;;;;5013392;28;19924;-81
2022/06/05 15:23:59;;;;;;;;;;;;;;;;;;5032851;28;20012;-80
2022/06/05 15:26:24;;;;;;;;;;;;;;;;;;5034035;28;19917;-81
2022/06/05 15:29:08;;;;;;;;;;;;;;;;;;5067827;28;19917;-81
2022/06/05 15:31:38;;;;;;;;;;;;;;;;;;5048646;27;20039;-77
2022/06/05 15:34:12;;;;;;;;;;;;;;;;;;5031255;28;20395;-81
2022/06/05 15:37:04;;;;;;;;;;;;;;;;;;5065764;28;19917;-81
2022/06/05 15:39:42;;;;;;;;;;;;;;;;;;5021927;28;19925;-81
2022/06/05 15:42:17;;;;;;;;;;;;;;;;;;5014183;28;19917;-80
2022/06/05 15:44:52;;;;;;;;;;;;;;;;;;5045160;28;19917;-78
2022/06/05 15:47:36;;;;;;;;;;;;;;;;;;5011592;28;20404;-78
2022/06/05 15:50:22;;;;;;;;;;;;;;;;;;5011101;28;19968;-77
2022/06/05 15:53:06;;;;;;;;;;;;;;;;;;5010181;28;19924;-76
2022/06/05 15:55:38;;;;;;;;;;;;;;;;;;4993006;28;19957;-76
2022/06/05 15:58:18;;;;;;;;;;;;;;;;;;5005445;28;19921;-76
2022/06/05 16:00:47;;;;;;;;;;;;;;;;;;4993095;28;19982;-77
2022/06/05 16:03:14;;;;;;;;;;;;;;;;;;5051314;27;19970;-79
2022/06/05 16:05:46;;;;;;;;;;;;;;;;;;5081955;28;19918;-80
2022/06/05 16:08:18;;;;;;;;;;;;;;;;;;5016871;28;19968;-80
2022/06/05 16:10:50;;;;;;;;;;;;;;;;;;5081762;28;19918;-78
2022/06/05 16:13:17;;;;;;;;;;;;;;;;;;4994084;28;20009;-78
2022/06/05 16:16:00;;;;;;;;;;;;;;;;;;5095492;28;20012;-77
2022/06/05 16:18:26;;;;;;;;;;;;;;;;;;5096252;28;19918;-77
2022/06/05 16:20:51;;;;;;;;;;;;;;;;;;4993947;28;20264;-76
2022/06/05 16:23:35;;;;;;;;;;;;;;;;;;5009585;28;19940;-77
2022/06/05 16:26:26;;;;;;;;;;;;;;;;;;5009672;28;20416;-76
2022/06/05 16:28:53;;;;;;;;;;;;;;;;;;5078974;28;19965;-77
2022/06/05 16:31:27;;;;;;;;;;;;;;;;;;5043505;28;19928;-76
2022/06/05 16:33:52;;;;;;;;;;;;;;;;;;5025674;28;20012;-76
2022/06/05 16:39:16;;;;;;;;;;;;;;;;;;5023643;28;19929;-77
2022/06/05 16:41:44;;;;;;;;;;;;;;;;;;5013824;28;19971;-76
2022/06/05 16:44:20;;;;;;;;;;;;;;;;;;5060672;28;19917;-76
2022/06/05 16:46:45;;;;;;;;;;;;;;;;;;5011207;28;20481;-76
2022/06/05 16:49:22;;;;;;;;;;;;;;;;;;5011322;28;19945;-76
2022/06/05 16:51:48;;;;;;;;;;;;;;;;;;5027474;28;19922;-76
2022/06/05 16:54:29;;;;;;;;;;;;;;;;;;5012005;28;19966;-76
2022/06/05 16:57:03;;;;;;;;;;;;;;;;;;5045078;28;20370;-76
2022/06/05 16:59:28;;;;;;;;;;;;;;;;;;5044445;28;19979;-76
2022/06/05 17:02:13;;;;;;;;;;;;;;;;;;5043577;28;19922;-76
2022/06/05 17:04:43;;;;;;;;;;;;;;;;;;5060766;28;19917;-76
2022/06/05 17:07:19;;;;;;;;;;;;;;;;;;5026684;28;19925;-76
2022/06/05 17:09:45;;;;;;;;;;;;;;;;;;5010799;28;20008;-76
2022/06/05 17:12:13;;;;;;;;;;;;;;;;;;5011040;28;20017;-76
2022/06/05 17:14:44;;;;;;;;;;;;;;;;;;5043091;28;19936;-76
2022/06/05 17:17:23;;;;;;;;;;;;;;;;;;5011694;28;19963;-77
2022/06/05 17:19:51;;;;;;;;;;;;;;;;;;5010849;28;19929;-76
2022/06/05 17:22:21;;;;;;;;;;;;;;;;;;5010435;28;19924;-76
2022/06/05 17:25:10;;;;;;;;;;;;;;;;;;5027021;28;19917;-75
2022/06/05 17:27:36;;;;;;;;;;;;;;;;;;5043609;28;19921;-76
2022/06/05 17:30:17;;;;;;;;;;;;;;;;;;5026725;28;19917;-76
2022/06/05 17:32:49;;;;;;;;;;;;;;;;;;5043456;28;20012;-75
2022/06/05 17:35:24;;;;;;;;;;;;;;;;;;5030002;28;19981;-78
2022/06/05 17:38:09;;;;;;;;;;;;;;;;;;5035239;28;19924;-79
2022/06/05 17:40:45;;;;;;;;;;;;;;;;;;5068469;28;19917;-78
2022/06/05 17:43:14;;;;;;;;;;;;;;;;;;5021004;28;20363;-77